Time;durP1;ratioP1;P1;durP2;ratioP2;P2;SDS_P1;SDS_P2;PMS_P1;PMS_P2;Temp;Humidity;BMP_temperature;BMP_pressure;BME280_temperature;BME280_humidity;BME280_pressure;Samples;Min_cycle;Max_cycle;Signal;HPM_P1;HPM_P2
2022/05/03 00:00:16;;;;;;;37.03;31.45;;;;;21.00;100685.00;;;;2066867;28;20222;-47
2022/05/03 00:01:37;;;;;;;42.87;35.47;;;;;21.00;100690.00;;;;2061913;28;20215;-46
2022/05/03 00:02:54;;;;;;;37.22;30.95;;;;;21.00;100720.00;;;;2066809;28;20233;-46
2022/05/03 00:04:06;;;;;;;35.90;30.10;;;;;21.00;100690.00;;;;2069210;28;20218;-46
2022/05/03 00:05:20;;;;;;;34.72;28.23;;;;;21.00;100683.00;;;;2085781;28;20208;-46
2022/05/03 00:06:43;;;;;;;33.53;28.67;;;;;21.00;100687.00;;;;2077928;28;20330;-47
2022/05/03 00:08:01;;;;;;;34.80;30.60;;;;;21.00;100684.00;;;;2077264;28;20222;-46
2022/05/03 00:09:06;;;;;;;36.17;30.52;;;;;21.00;100690.00;;;;2077879;28;20292;-45
2022/05/03 00:10:12;;;;;;;30.58;27.27;;;;;21.00;100690.00;;;;2076035;28;20224;-46
2022/05/03 00:11:19;;;;;;;32.03;27.80;;;;;21.00;100690.00;;;;2077805;28;20214;-47
2022/05/03 00:12:25;;;;;;;32.35;28.08;;;;;21.00;100690.00;;;;2077606;28;20210;-46
2022/05/03 00:13:29;;;;;;;32.47;28.42;;;;;21.00;100683.00;;;;2071325;28;20207;-45
2022/05/03 00:14:43;;;;;;;32.25;28.00;;;;;21.00;100686.00;;;;2071436;28;20746;-45
2022/05/03 00:15:43;;;;;;;32.20;26.95;;;;;21.00;100682.00;;;;2071960;28;20714;-46
2022/05/03 00:16:44;;;;;;;34.53;27.50;;;;;21.00;100683.00;;;;2071338;28;20214;-45
2022/05/03 00:17:44;;;;;;;33.30;27.40;;;;;21.00;100685.00;;;;2070924;28;20575;-47
2022/05/03 00:18:45;;;;;;;33.20;27.00;;;;;21.00;100687.00;;;;2071057;28;20225;-47
2022/05/03 00:19:45;;;;;;;30.53;26.27;;;;;21.00;100682.00;;;;2071192;28;20265;-46
2022/05/03 00:20:47;;;;;;;32.63;28.20;;;;;21.00;100682.00;;;;2070764;28;20209;-45
2022/05/03 00:21:48;;;;;;;28.98;25.83;;;;;21.00;100675.00;;;;2071165;28;20633;-45
2022/05/03 00:22:48;;;;;;;31.50;26.40;;;;;20.90;100677.00;;;;2070954;28;20218;-45
2022/05/03 00:23:48;;;;;;;31.63;26.60;;;;;20.90;100676.00;;;;2070810;28;20213;-46
2022/05/03 00:24:54;;;;;;;30.47;26.57;;;;;20.90;100674.00;;;;2071008;28;20613;-45
2022/05/03 00:25:54;;;;;;;32.60;26.98;;;;;20.90;100675.00;;;;2070165;28;20284;-45
2022/05/03 00:26:55;;;;;;;26.83;23.93;;;;;20.90;100671.00;;;;2071118;28;20725;-45
2022/05/03 00:27:55;;;;;;;28.57;25.47;;;;;20.90;100674.00;;;;2071767;28;20735;-46
2022/05/03 00:28:56;;;;;;;28.70;23.93;;;;;20.90;100651.00;;;;2070984;28;20745;-46
2022/05/03 00:29:58;;;;;;;29.13;24.10;;;;;20.90;100662.00;;;;2069450;28;20210;-47
2022/05/03 00:30:58;;;;;;;36.42;29.85;;;;;20.90;100665.00;;;;2070776;28;20692;-45
2022/05/03 00:32:01;;;;;;;27.57;23.80;;;;;20.90;100663.00;;;;2071087;28;20272;-45
2022/05/03 00:33:04;;;;;;;24.73;22.00;;;;;20.90;100663.00;;;;2063062;28;20306;-47
2022/05/03 00:34:04;;;;;;;26.70;22.70;;;;;20.90;100655.00;;;;2063371;28;20289;-45
2022/05/03 00:35:05;;;;;;;27.30;23.43;;;;;20.90;100658.00;;;;2070613;28;20217;-45
2022/05/03 00:36:06;;;;;;;29.80;24.57;;;;;20.90;100661.00;;;;2069982;28;20225;-47
2022/05/03 00:37:06;;;;;;;25.80;22.43;;;;;20.90;100663.00;;;;2070197;28;20449;-45
2022/05/03 00:38:06;;;;;;;28.43;23.20;;;;;20.90;100659.00;;;;2071102;28;20693;-46
2022/05/03 00:39:06;;;;;;;26.43;22.90;;;;;20.90;100662.00;;;;2070991;28;20634;-45
2022/05/03 00:40:09;;;;;;;30.73;24.90;;;;;20.90;100658.00;;;;2070863;28;20823;-46
2022/05/03 00:41:10;;;;;;;23.98;21.27;;;;;20.90;100667.00;;;;2070478;28;20217;-45
2022/05/03 00:42:25;;;;;;;24.33;21.50;;;;;20.90;100670.00;;;;2070203;28;20586;-45
2022/05/03 00:43:37;;;;;;;27.35;21.95;;;;;20.90;100670.00;;;;2070901;28;20221;-45
2022/05/03 00:44:58;;;;;;;34.33;24.30;;;;;20.90;100674.00;;;;2071262;28;20218;-45
2022/05/03 00:46:02;;;;;;;24.45;21.48;;;;;20.90;100673.00;;;;2075416;28;20226;-45
2022/05/03 00:47:06;;;;;;;26.63;22.02;;;;;20.90;100670.00;;;;2070311;28;20214;-47
2022/05/03 00:48:24;;;;;;;22.85;20.10;;;;;20.90;100659.00;;;;2070363;28;20225;-45
2022/05/03 00:49:53;;;;;;;23.73;21.15;;;;;20.90;100673.00;;;;2070265;28;20256;-47
2022/05/03 00:51:04;;;;;;;24.17;20.88;;;;;20.90;100662.00;;;;2069958;28;20305;-45
2022/05/03 00:52:22;;;;;;;24.85;21.25;;;;;20.90;100672.00;;;;2075163;28;20213;-45
2022/05/03 00:53:38;;;;;;;24.70;21.23;;;;;20.90;100679.00;;;;2078245;28;20227;-47
2022/05/03 00:54:50;;;;;;;22.08;19.15;;;;;20.90;100671.00;;;;2072140;28;20221;-45
2022/05/03 00:55:50;;;;;;;20.90;17.73;;;;;20.90;100664.00;;;;2077455;28;20292;-46
2022/05/03 00:57:03;;;;;;;21.57;18.90;;;;;20.90;100662.00;;;;2079497;28;20698;-47
2022/05/03 00:58:18;;;;;;;23.50;20.38;;;;;20.80;100664.00;;;;2079793;28;20275;-45
2022/05/03 00:59:45;;;;;;;24.23;21.70;;;;;20.80;100660.00;;;;2079332;28;20205;-46
2022/05/03 01:01:05;;;;;;;25.50;20.60;;;;;20.80;100665.00;;;;2079240;28;20299;-47
2022/05/03 01:02:06;;;;;;;20.95;18.50;;;;;20.80;100665.00;;;;2078791;28;20279;-47
2022/05/03 01:03:10;;;;;;;21.20;18.90;;;;;20.80;100655.00;;;;2078993;28;20217;-45
2022/05/03 01:04:21;;;;;;;20.42;18.00;;;;;20.80;100657.00;;;;2078992;28;20585;-45
2022/05/03 01:05:37;;;;;;;22.75;19.40;;;;;20.80;100663.00;;;;2078235;28;20588;-46
2022/05/03 01:07:02;;;;;;;22.00;18.10;;;;;20.80;100665.00;;;;2078829;28;20757;-46
2022/05/03 01:08:07;;;;;;;21.73;19.08;;;;;20.80;100662.00;;;;2079112;28;20225;-46
2022/05/03 01:09:11;;;;;;;21.00;18.50;;;;;20.80;100669.00;;;;2079390;28;20813;-46
2022/05/03 01:10:34;;;;;;;21.05;18.17;;;;;20.80;100668.00;;;;2079524;28;20214;-47
2022/05/03 01:12:02;;;;;;;19.73;17.63;;;;;20.80;100667.00;;;;2076538;28;20268;-46
2022/05/03 01:13:09;;;;;;;17.95;15.88;;;;;20.80;100663.00;;;;2073945;28;20213;-45
2022/05/03 01:14:17;;;;;;;19.42;17.38;;;;;20.80;100664.00;;;;2078960;28;20730;-45
2022/05/03 01:15:25;;;;;;;20.90;17.80;;;;;20.80;100662.00;;;;2079158;28;20686;-46
2022/05/03 01:16:28;;;;;;;19.05;16.15;;;;;20.80;100669.00;;;;2079219;28;20275;-45
2022/05/03 01:18:00;;;;;;;19.10;17.00;;;;;20.80;100677.00;;;;2072291;28;20214;-46
2022/05/03 01:19:24;;;;;;;19.30;16.40;;;;;20.80;100675.00;;;;2078643;28;20241;-46
2022/05/03 01:20:27;;;;;;;18.33;16.05;;;;;20.80;100669.00;;;;2078337;28;20210;-45
2022/05/03 01:21:41;;;;;;;17.42;15.52;;;;;20.80;100670.00;;;;2078776;28;20852;-45
2022/05/03 01:23:09;;;;;;;19.20;17.20;;;;;20.80;100673.00;;;;2078683;28;20254;-45
2022/05/03 01:24:37;;;;;;;20.27;16.45;;;;;20.80;100663.00;;;;2080089;28;20817;-45
2022/05/03 01:25:37;;;;;;;18.58;16.60;;;;;20.80;100671.00;;;;2078256;28;20221;-46
2022/05/03 01:27:13;;;;;;;17.10;15.27;;;;;20.80;100670.00;;;;2079410;28;20240;-46
2022/05/03 01:28:31;;;;;;;16.02;14.05;;;;;20.80;100665.00;;;;2078419;28;20248;-45
2022/05/03 01:29:35;;;;;;;17.38;15.40;;;;;20.80;100664.00;;;;2064509;28;20219;-47
2022/05/03 01:30:35;;;;;;;18.35;16.45;;;;;20.80;100664.00;;;;2069878;28;20277;-46
2022/05/03 01:31:36;;;;;;;16.83;14.97;;;;;20.80;100660.00;;;;2070369;28;20606;-45
2022/05/03 01:32:36;;;;;;;16.87;15.17;;;;;20.70;100665.00;;;;2070500;28;20202;-44
2022/05/03 01:33:43;;;;;;;17.03;15.23;;;;;20.80;100667.00;;;;2070603;28;20298;-45
2022/05/03 01:34:44;;;;;;;17.02;14.18;;;;;20.70;100666.00;;;;2077594;28;20220;-45
2022/05/03 01:35:46;;;;;;;16.55;14.20;;;;;20.70;100665.00;;;;2077826;28;20692;-46
2022/05/03 01:37:09;;;;;;;15.90;14.35;;;;;20.70;100661.00;;;;2078800;28;20614;-45
2022/05/03 01:38:14;;;;;;;16.70;14.98;;;;;20.70;100662.00;;;;2086136;28;20209;-45
2022/05/03 01:39:21;;;;;;;16.05;14.40;;;;;20.80;100668.00;;;;2082051;28;20214;-46
2022/05/03 01:40:43;;;;;;;17.95;14.10;;;;;20.70;100656.00;;;;2074801;28;20221;-49
2022/05/03 01:41:49;;;;;;;16.05;13.52;;;;;20.70;100665.00;;;;2082308;28;20382;-45
2022/05/03 01:42:49;;;;;;;16.83;14.40;;;;;20.70;100669.00;;;;2080037;28;20210;-47
2022/05/03 01:44:08;;;;;;;15.50;13.93;;;;;20.70;100655.00;;;;2086662;28;20215;-46
2022/05/03 01:45:10;;;;;;;16.88;15.07;;;;;20.70;100670.00;;;;2079929;28;20213;-45
2022/05/03 01:46:24;;;;;;;15.43;13.80;;;;;20.70;100669.00;;;;2077659;28;20206;-45
2022/05/03 01:47:43;;;;;;;15.50;12.48;;;;;20.70;100666.00;;;;2081894;28;20215;-45
2022/05/03 01:50:41;;;;;;;14.75;13.23;;;;;20.70;100675.00;;;;2083184;28;20213;-46
2022/05/03 01:51:45;;;;;;;14.95;12.88;;;;;20.70;100666.00;;;;2078541;28;20236;-46
2022/05/03 01:52:57;;;;;;;15.65;13.48;;;;;20.70;100673.00;;;;2079357;28;20706;-44
2022/05/03 01:54:08;;;;;;;16.88;13.23;;;;;20.70;100667.00;;;;2072750;28;20663;-45
2022/05/03 01:55:24;;;;;;;12.85;11.60;;;;;20.70;100664.00;;;;2070148;28;20206;-46
2022/05/03 01:56:27;;;;;;;13.75;12.35;;;;;20.70;100665.00;;;;2073888;28;20206;-45
2022/05/03 01:57:52;;;;;;;13.73;12.32;;;;;20.70;100665.00;;;;2061936;28;20700;-46
2022/05/03 01:59:04;;;;;;;14.88;12.45;;;;;20.70;100654.00;;;;2070583;28;20228;-46
2022/05/03 02:00:09;;;;;;;13.68;12.25;;;;;20.70;100666.00;;;;2075584;28;20240;-46
2022/05/03 02:01:40;;;;;;;14.05;12.60;;;;;20.70;100662.00;;;;2078355;28;20629;-45
2022/05/03 02:02:59;;;;;;;13.02;11.55;;;;;20.70;100661.00;;;;2070046;28;20309;-46
2022/05/03 02:04:09;;;;;;;13.20;11.80;;;;;20.70;100670.00;;;;2070381;28;20220;-44
2022/05/03 02:05:28;;;;;;;13.68;12.27;;;;;20.70;100657.00;;;;2069995;28;20634;-45
2022/05/03 02:06:37;;;;;;;13.38;11.45;;;;;20.70;100671.00;;;;2069573;28;20305;-47
2022/05/03 02:07:54;;;;;;;13.18;11.88;;;;;20.70;100656.00;;;;2069282;28;20707;-46
2022/05/03 02:09:04;;;;;;;12.32;11.00;;;;;20.70;100655.00;;;;2058383;28;20736;-44
2022/05/03 02:10:20;;;;;;;15.13;11.77;;;;;20.70;100656.00;;;;2072560;28;20258;-47
2022/05/03 02:11:46;;;;;;;14.02;12.52;;;;;20.70;100655.00;;;;2075383;28;20300;-47
2022/05/03 02:12:53;;;;;;;12.73;11.43;;;;;20.70;100658.00;;;;2071492;28;20379;-44
2022/05/03 02:15:38;;;;;;;11.88;10.68;;;;;20.70;100655.00;;;;2079881;28;20218;-45
2022/05/03 02:16:57;;;;;;;13.32;11.30;;;;;20.60;100650.00;;;;2076476;28;20312;-44
2022/05/03 02:18:33;;;;;;;12.75;11.35;;;;;20.60;100650.00;;;;2070829;28;20206;-46
2022/05/03 02:19:36;;;;;;;12.00;9.90;;;;;20.60;100648.00;;;;2073567;28;20241;-44
2022/05/03 02:20:43;;;;;;;11.93;10.70;;;;;20.60;100649.00;;;;2070588;28;20214;-44
2022/05/03 02:22:13;;;;;;;10.65;9.55;;;;;20.60;100647.00;;;;2078639;28;20329;-45
2022/05/03 02:23:32;;;;;;;10.90;9.80;;;;;20.60;100651.00;;;;2080222;28;20706;-47
2022/05/03 02:24:40;;;;;;;13.05;10.35;;;;;20.60;100652.00;;;;2081633;28;20221;-45
2022/05/03 02:25:41;;;;;;;11.82;10.63;;;;;20.60;100646.00;;;;2061302;28;20250;-48
2022/05/03 02:26:48;;;;;;;10.75;9.65;;;;;20.60;100649.00;;;;2057816;28;20593;-47
2022/05/03 02:27:56;;;;;;;10.68;9.43;;;;;20.60;100650.00;;;;2070853;28;20226;-44
2022/05/03 02:29:14;;;;;;;11.27;10.15;;;;;20.60;100641.00;;;;2075111;28;20235;-44
2022/05/03 02:30:15;;;;;;;10.57;9.57;;;;;20.60;100653.00;;;;2073805;28;20214;-46
2022/05/03 02:31:19;;;;;;;10.77;9.70;;;;;20.60;100652.00;;;;2070919;28;20285;-46
2022/05/03 02:32:26;;;;;;;11.60;9.70;;;;;20.60;100650.00;;;;2070229;28;20210;-47
2022/05/03 02:33:31;;;;;;;10.57;9.48;;;;;20.60;100649.00;;;;2075247;28;20602;-47
2022/05/03 02:34:44;;;;;;;10.90;9.80;;;;;20.60;100642.00;;;;2051856;28;20306;-49
2022/05/03 02:35:48;;;;;;;10.73;9.68;;;;;20.60;100652.00;;;;2064294;28;20289;-46
2022/05/03 02:36:59;;;;;;;11.05;9.48;;;;;20.60;100647.00;;;;2075181;28;20300;-47
2022/05/03 02:38:06;;;;;;;10.15;9.07;;;;;20.60;100651.00;;;;2072190;28;20210;-47
2022/05/03 02:39:07;;;;;;;10.70;8.90;;;;;20.60;100651.00;;;;2078267;28;20581;-47
2022/05/03 02:40:08;;;;;;;9.80;8.80;;;;;20.60;100649.00;;;;2077788;28;20344;-47
2022/05/03 02:41:10;;;;;;;9.68;8.70;;;;;20.60;100650.00;;;;2077558;28;20259;-47
2022/05/03 02:42:11;;;;;;;10.13;9.10;;;;;20.60;100656.00;;;;2069909;28;20272;-46
2022/05/03 02:43:13;;;;;;;9.23;8.33;;;;;20.60;100652.00;;;;2062606;28;20211;-47
2022/05/03 02:44:13;;;;;;;9.23;8.27;;;;;20.60;100647.00;;;;2062116;28;20499;-46
2022/05/03 02:45:14;;;;;;;9.60;8.63;;;;;20.60;100652.00;;;;2076093;28;20252;-47
2022/05/03 02:46:21;;;;;;;10.03;9.03;;;;;20.60;100652.00;;;;2069428;28;20210;-47
2022/05/03 02:47:43;;;;;;;9.00;8.10;;;;;20.60;100659.00;;;;2071144;28;20252;-46
2022/05/03 02:48:55;;;;;;;9.43;8.43;;;;;20.60;100655.00;;;;2062109;28;20277;-47
2022/05/03 02:50:06;;;;;;;10.95;9.55;;;;;20.60;100654.00;;;;2063545;28;20211;-47
2022/05/03 02:51:07;;;;;;;10.57;8.52;;;;;20.60;100638.00;;;;2068044;28;20702;-47
2022/05/03 02:52:26;;;;;;;9.85;8.95;;;;;20.60;100655.00;;;;2067899;28;20244;-47
2022/05/03 02:53:33;;;;;;;9.65;8.32;;;;;20.60;100635.00;;;;2059396;28;20788;-47
2022/05/03 02:54:45;;;;;;;9.00;7.70;;;;;20.60;100647.00;;;;2067695;28;20218;-52
2022/05/03 02:55:54;;;;;;;9.38;8.48;;;;;20.60;100643.00;;;;2072080;28;20222;-47
2022/05/03 02:57:19;;;;;;;9.40;7.35;;;;;20.60;100640.00;;;;2070265;28;20280;-47
2022/05/03 02:58:40;;;;;;;8.05;7.25;;;;;20.60;100640.00;;;;2068728;28;20704;-46
2022/05/03 03:02:59;;;;;;;8.73;7.45;;;;;20.60;100650.00;;;;2080326;28;20213;-47
2022/05/03 03:03:59;;;;;;;8.00;7.25;;;;;20.50;100639.00;;;;2073565;28;20218;-47
2022/05/03 03:05:07;;;;;;;9.00;8.10;;;;;20.50;100638.00;;;;2069821;28;20317;-46
2022/05/03 03:06:07;;;;;;;8.45;7.55;;;;;20.50;100642.00;;;;2068975;28;20210;-47
2022/05/03 03:07:07;;;;;;;8.47;7.67;;;;;20.50;100630.00;;;;2073468;28;20288;-47
2022/05/03 03:08:10;;;;;;;8.37;7.40;;;;;20.50;100643.00;;;;2067058;28;20219;-46
2022/05/03 03:09:17;;;;;;;8.48;7.50;;;;;20.50;100639.00;;;;2068593;28;20276;-46
2022/05/03 03:10:20;;;;;;;8.25;7.35;;;;;20.60;100648.00;;;;2069932;28;20293;-47
2022/05/03 03:11:57;;;;;;;8.25;7.45;;;;;20.50;100642.00;;;;2069886;28;20674;-47
2022/05/03 03:13:10;;;;;;;8.52;7.63;;;;;20.50;100648.00;;;;2076438;28;20591;-47
2022/05/03 03:14:39;;;;;;;7.53;6.78;;;;;20.50;100640.00;;;;2076841;28;20881;-46
2022/05/03 03:15:40;;;;;;;8.10;7.00;;;;;20.50;100644.00;;;;2080109;28;20340;-47
2022/05/03 03:16:54;;;;;;;7.45;6.75;;;;;20.50;100645.00;;;;2078251;28;20632;-46
2022/05/03 03:17:57;;;;;;;9.77;7.05;;;;;20.50;100635.00;;;;2078161;28;20217;-47
2022/05/03 03:18:57;;;;;;;8.35;7.55;;;;;20.50;100637.00;;;;2077945;28;20592;-48
2022/05/03 03:20:13;;;;;;;8.13;7.33;;;;;20.50;100641.00;;;;2078423;28;20228;-46
2022/05/03 03:21:14;;;;;;;8.18;7.30;;;;;20.50;100643.00;;;;2078462;28;20701;-46
2022/05/03 03:22:15;;;;;;;7.53;6.83;;;;;20.50;100643.00;;;;2075041;28;20233;-47
2022/05/03 03:23:15;;;;;;;7.03;6.38;;;;;20.50;100646.00;;;;2069969;28;20202;-46
2022/05/03 03:24:16;;;;;;;8.13;7.20;;;;;20.50;100644.00;;;;2070550;28;20342;-47
2022/05/03 03:25:18;;;;;;;10.77;6.97;;;;;20.50;100644.00;;;;2070394;28;20210;-47
2022/05/03 03:26:18;;;;;;;7.80;6.90;;;;;20.50;100644.00;;;;2070194;28;20210;-47
2022/05/03 03:27:19;;;;;;;8.10;7.30;;;;;20.50;100644.00;;;;2069484;28;20292;-47
2022/05/03 03:28:22;;;;;;;7.20;6.60;;;;;20.50;100645.00;;;;2069629;28;20641;-46
2022/05/03 03:29:22;;;;;;;7.82;7.05;;;;;20.50;100591.00;;;;2069891;28;20614;-47
2022/05/03 03:30:23;;;;;;;7.13;6.43;;;;;20.50;100642.00;;;;2069955;28;20214;-47
2022/05/03 03:31:23;;;;;;;6.50;5.90;;;;;20.50;100643.00;;;;2070446;28;20214;-46
2022/05/03 03:32:25;;;;;;;6.70;6.10;;;;;20.50;100639.00;;;;2069504;28;20281;-47
2022/05/03 03:33:25;;;;;;;6.97;6.28;;;;;20.50;100644.00;;;;2069937;28;20237;-46
2022/05/03 03:34:26;;;;;;;7.23;6.53;;;;;20.50;100639.00;;;;2073019;28;20193;-46
2022/05/03 03:35:26;;;;;;;7.13;6.43;;;;;20.50;100633.00;;;;2068625;28;20277;-47
2022/05/03 03:36:27;;;;;;;6.87;6.27;;;;;20.50;100637.00;;;;2056665;28;20215;-47
2022/05/03 03:37:28;;;;;;;6.70;6.10;;;;;20.50;100645.00;;;;2061621;28;20248;-47
2022/05/03 03:38:39;;;;;;;6.50;5.90;;;;;20.50;100640.00;;;;2070452;28;20203;-47
2022/05/03 03:39:39;;;;;;;7.18;6.40;;;;;20.50;100640.00;;;;2075282;28;20217;-47
2022/05/03 03:40:40;;;;;;;6.97;6.27;;;;;20.50;100647.00;;;;2077666;28;20229;-46
2022/05/03 03:41:41;;;;;;;6.90;6.20;;;;;20.50;100630.00;;;;2078033;28;20221;-46
2022/05/03 03:42:42;;;;;;;7.13;6.43;;;;;20.50;100644.00;;;;2077556;28;20210;-46
2022/05/03 03:43:42;;;;;;;6.70;6.10;;;;;20.50;100644.00;;;;2081778;28;20799;-52
2022/05/03 03:44:43;;;;;;;6.60;5.90;;;;;20.50;100645.00;;;;2077904;28;20292;-50
2022/05/03 03:45:43;;;;;;;7.63;6.53;;;;;20.50;100637.00;;;;2076753;28;20227;-49
2022/05/03 03:46:43;;;;;;;6.63;6.03;;;;;20.50;100636.00;;;;2077665;28;20210;-49
2022/05/03 03:47:44;;;;;;;7.60;5.97;;;;;20.50;100643.00;;;;2069557;28;20693;-48
2022/05/03 03:48:45;;;;;;;6.32;5.75;;;;;20.50;100641.00;;;;2064543;28;20217;-47
2022/05/03 03:49:45;;;;;;;6.20;5.60;;;;;20.50;100640.00;;;;2070299;28;20320;-47
2022/05/03 03:50:45;;;;;;;6.97;6.37;;;;;20.50;100642.00;;;;2063150;28;20211;-47
2022/05/03 03:51:46;;;;;;;6.10;5.50;;;;;20.50;100635.00;;;;2055060;28;20709;-47
2022/05/03 03:52:47;;;;;;;6.67;6.07;;;;;20.50;100641.00;;;;2054892;28;20215;-47
2022/05/03 03:53:48;;;;;;;6.72;6.03;;;;;20.50;100645.00;;;;2071330;28;20241;-47
2022/05/03 03:54:48;;;;;;;6.50;5.90;;;;;20.40;100650.00;;;;2062775;28;20552;-47
2022/05/03 03:55:49;;;;;;;6.27;5.60;;;;;20.40;100644.00;;;;2062329;28;20249;-46
2022/05/03 03:56:49;;;;;;;6.10;5.30;;;;;20.40;100649.00;;;;2071263;28;20214;-46
2022/05/03 03:57:49;;;;;;;6.70;6.10;;;;;20.40;100645.00;;;;2071434;28;20210;-47
2022/05/03 03:58:50;;;;;;;6.30;5.70;;;;;20.50;100648.00;;;;2071493;28;20583;-47
2022/05/03 03:59:50;;;;;;;6.20;5.60;;;;;20.50;100646.00;;;;2071590;28;20733;-47
2022/05/03 04:00:51;;;;;;;6.10;5.53;;;;;20.50;100650.00;;;;2073370;28;20257;-47
2022/05/03 04:01:51;;;;;;;6.53;5.87;;;;;20.40;100645.00;;;;2079508;28;20232;-47
2022/05/03 04:02:51;;;;;;;6.17;5.57;;;;;20.40;100644.00;;;;2079083;28;20263;-47
2022/05/03 04:03:52;;;;;;;6.33;5.60;;;;;20.40;100651.00;;;;2071344;28;20214;-47
2022/05/03 04:04:52;;;;;;;6.87;6.20;;;;;20.50;100649.00;;;;2069561;28;20296;-47
2022/05/03 04:05:52;;;;;;;6.27;5.67;;;;;20.40;100643.00;;;;2068539;28;20217;-47
2022/05/03 04:06:53;;;;;;;7.30;5.60;;;;;20.40;100641.00;;;;2072196;28;20209;-47
2022/05/03 04:07:53;;;;;;;6.30;5.70;;;;;20.40;100645.00;;;;2071868;28;20253;-48
2022/05/03 04:08:53;;;;;;;6.67;5.30;;;;;20.40;100647.00;;;;2071875;28;20216;-46
2022/05/03 04:09:54;;;;;;;6.90;5.63;;;;;20.40;100647.00;;;;2071888;28;20514;-47
2022/05/03 04:10:54;;;;;;;6.30;5.70;;;;;20.40;100648.00;;;;2071969;28;20221;-47
2022/05/03 04:11:54;;;;;;;6.10;5.50;;;;;20.40;100645.00;;;;2071790;28;20544;-46
2022/05/03 04:12:55;;;;;;;5.97;5.43;;;;;20.40;100647.00;;;;2071792;28;20268;-47
2022/05/03 04:13:55;;;;;;;6.00;5.40;;;;;20.40;100650.00;;;;2072789;28;20212;-47
2022/05/03 04:14:55;;;;;;;6.17;5.57;;;;;20.40;100648.00;;;;2070810;28;20222;-46
2022/05/03 04:15:56;;;;;;;5.70;5.10;;;;;20.40;100655.00;;;;2070253;28;20217;-47
2022/05/03 04:16:56;;;;;;;5.70;5.20;;;;;20.40;100662.00;;;;2075267;28;20198;-47
2022/05/03 04:17:57;;;;;;;5.90;5.40;;;;;20.40;100657.00;;;;2070975;28;20213;-46
2022/05/03 04:18:57;;;;;;;6.20;5.60;;;;;20.40;100659.00;;;;2071294;28;20205;-47
2022/05/03 04:19:58;;;;;;;5.97;5.37;;;;;20.40;100658.00;;;;2071806;28;20230;-46
2022/05/03 04:20:58;;;;;;;6.20;5.43;;;;;20.40;100655.00;;;;2072009;28;20210;-47
2022/05/03 04:22:12;;;;;;;4.80;4.40;;;;;20.40;100659.00;;;;2071834;28;20617;-47
2022/05/03 04:23:20;;;;;;;5.47;4.97;;;;;20.40;100659.00;;;;2071955;28;20344;-47
2022/05/03 04:24:21;;;;;;;6.05;5.45;;;;;20.40;100656.00;;;;2070886;28;20229;-46
2022/05/03 04:25:21;;;;;;;5.63;5.13;;;;;20.40;100658.00;;;;2069030;28;20217;-47
2022/05/03 04:26:22;;;;;;;6.00;5.40;;;;;20.40;100655.00;;;;2078216;28;20893;-47
2022/05/03 04:27:22;;;;;;;6.07;5.47;;;;;20.40;100659.00;;;;2071767;28;20217;-47
2022/05/03 04:28:22;;;;;;;5.00;4.60;;;;;20.40;100654.00;;;;2071805;28;20215;-46
2022/05/03 04:29:23;;;;;;;5.80;5.30;;;;;20.40;100651.00;;;;2071844;28;20245;-47
2022/05/03 04:30:23;;;;;;;5.43;4.83;;;;;20.40;100655.00;;;;2071558;28;20276;-46
2022/05/03 04:31:27;;;;;;;5.53;4.83;;;;;20.40;100661.00;;;;2071764;28;20656;-47
2022/05/03 04:32:29;;;;;;;7.45;4.85;;;;;20.40;100666.00;;;;2071484;28;20272;-47
2022/05/03 04:33:29;;;;;;;6.03;5.35;;;;;20.30;100656.00;;;;2071030;28;20233;-47
2022/05/03 04:34:30;;;;;;;6.40;5.00;;;;;20.30;100656.00;;;;2070933;28;20213;-47
2022/05/03 04:35:30;;;;;;;8.13;4.77;;;;;20.40;100661.00;;;;2070886;28;20272;-47
2022/05/03 04:36:32;;;;;;;5.57;5.03;;;;;20.40;100656.00;;;;2071693;28;20254;-47
2022/05/03 04:37:33;;;;;;;6.38;4.97;;;;;20.40;100655.00;;;;2075495;28;20213;-46
2022/05/03 04:38:33;;;;;;;5.20;4.70;;;;;20.40;100664.00;;;;2080046;28;20238;-47
2022/05/03 04:39:33;;;;;;;5.80;5.07;;;;;20.40;100655.00;;;;2079874;28;20875;-47
2022/05/03 04:40:34;;;;;;;5.17;4.33;;;;;20.40;100659.00;;;;2079908;28;20217;-47
2022/05/03 04:41:34;;;;;;;6.17;4.53;;;;;20.40;100661.00;;;;2079589;28;21026;-47
2022/05/03 04:42:34;;;;;;;4.90;4.40;;;;;20.40;100662.00;;;;2079675;28;20710;-47
2022/05/03 04:43:35;;;;;;;7.23;4.90;;;;;20.40;100669.00;;;;2078956;28;20757;-47
2022/05/03 04:44:35;;;;;;;5.37;4.33;;;;;20.40;100663.00;;;;2077082;28;20649;-47
2022/05/03 04:45:36;;;;;;;4.77;4.27;;;;;20.50;100670.00;;;;2078239;28;20653;-47
2022/05/03 04:46:36;;;;;;;6.87;5.00;;;;;20.40;100670.00;;;;2079029;28;20213;-47
2022/05/03 04:47:36;;;;;;;6.77;4.70;;;;;20.40;100665.00;;;;2078860;28;20233;-47
2022/05/03 04:48:37;;;;;;;5.20;4.70;;;;;20.40;100673.00;;;;2079824;28;20213;-47
2022/05/03 04:49:37;;;;;;;10.13;4.60;;;;;20.40;100669.00;;;;2079696;28;20217;-47
2022/05/03 04:50:38;;;;;;;6.50;4.87;;;;;20.40;100675.00;;;;2079843;28;20304;-47
2022/05/03 04:51:38;;;;;;;9.47;4.50;;;;;20.40;100668.00;;;;2079826;28;20622;-46
2022/05/03 04:52:38;;;;;;;5.27;4.77;;;;;20.40;100668.00;;;;2079249;28;20705;-46
2022/05/03 04:53:39;;;;;;;6.03;4.53;;;;;20.40;100666.00;;;;2079610;28;20691;-47
2022/05/03 04:54:39;;;;;;;5.53;4.90;;;;;20.40;100670.00;;;;2079596;28;20213;-47
2022/05/03 04:55:39;;;;;;;5.60;5.10;;;;;20.40;100671.00;;;;2078922;28;20209;-47
2022/05/03 04:56:40;;;;;;;5.13;4.47;;;;;20.30;100670.00;;;;2079651;28;20213;-47
2022/05/03 04:57:41;;;;;;;5.80;4.67;;;;;20.40;100671.00;;;;2070632;28;20723;-47
2022/05/03 04:58:41;;;;;;;5.00;4.30;;;;;20.40;100675.00;;;;2070749;28;20480;-47
2022/05/03 04:59:42;;;;;;;6.77;4.23;;;;;20.40;100678.00;;;;2079153;28;20279;-47
2022/05/03 05:00:42;;;;;;;5.00;4.60;;;;;20.40;100673.00;;;;2079516;28;20260;-46
2022/05/03 05:01:42;;;;;;;4.77;4.30;;;;;20.40;100674.00;;;;2079786;28;20221;-47
2022/05/03 05:02:43;;;;;;;5.47;4.00;;;;;20.30;100674.00;;;;2078495;28;20224;-46
2022/05/03 05:03:43;;;;;;;4.90;4.40;;;;;20.30;100673.00;;;;2071611;28;20210;-47
2022/05/03 05:04:43;;;;;;;4.17;3.77;;;;;20.30;100676.00;;;;2071044;28;21041;-47
2022/05/03 05:05:44;;;;;;;4.40;4.00;;;;;20.30;100671.00;;;;2070113;28;20214;-46
2022/05/03 05:06:44;;;;;;;4.80;4.40;;;;;20.40;100671.00;;;;2071521;28;20218;-46
2022/05/03 05:07:44;;;;;;;5.90;5.30;;;;;20.40;100675.00;;;;2070722;28;20218;-47
2022/05/03 05:08:45;;;;;;;5.20;4.70;;;;;20.30;100677.00;;;;2071512;28;20266;-47
2022/05/03 05:11:04;;;;;;;6.30;5.72;;;;;20.30;100685.00;;;;2079107;28;20772;-47
2022/05/03 05:12:05;;;;;;;8.70;7.47;;;;;20.30;100679.00;;;;2079553;28;20210;-46
2022/05/03 05:13:05;;;;;;;13.00;11.40;;;;;20.30;100683.00;;;;2079175;28;20220;-47
2022/05/03 05:14:05;;;;;;;13.73;11.53;;;;;20.30;100683.00;;;;2071464;28;20215;-47
2022/05/03 05:15:06;;;;;;;24.37;19.60;;;;;20.30;100679.00;;;;2070829;28;20221;-47
2022/05/03 05:16:07;;;;;;;29.40;23.30;;;;;20.30;100675.00;;;;2069773;28;20273;-47
2022/05/03 05:17:07;;;;;;;21.80;16.80;;;;;20.30;100680.00;;;;2070657;28;20268;-46
2022/05/03 05:18:08;;;;;;;31.13;24.10;;;;;20.30;100669.00;;;;2071344;28;20496;-47
2022/05/03 05:19:09;;;;;;;36.88;29.40;;;;;20.30;100677.00;;;;2071333;28;20587;-47
2022/05/03 05:20:09;;;;;;;40.30;29.37;;;;;20.30;100680.00;;;;2077223;28;20240;-47
2022/05/03 05:21:11;;;;;;;44.60;36.10;;;;;20.30;100686.00;;;;2079277;28;20251;-46
2022/05/03 05:22:12;;;;;;;41.92;32.10;;;;;20.30;100686.00;;;;2079253;28;20218;-46
2022/05/03 05:23:12;;;;;;;53.40;38.53;;;;;20.30;100686.00;;;;2079336;28;20206;-47
2022/05/03 05:24:13;;;;;;;53.17;39.90;;;;;20.30;100689.00;;;;2079361;28;20462;-47
2022/05/03 05:25:14;;;;;;;48.85;35.20;;;;;20.30;100694.00;;;;2078962;28;20882;-47
2022/05/03 05:26:14;;;;;;;51.57;39.00;;;;;20.30;100688.00;;;;2078542;28;20225;-46
2022/05/03 05:27:14;;;;;;;55.73;41.30;;;;;20.30;100690.00;;;;2079161;28;20584;-47
2022/05/03 05:28:18;;;;;;;51.37;38.43;;;;;20.30;100686.00;;;;2079303;28;20275;-46
2022/05/03 05:29:18;;;;;;;57.55;44.00;;;;;20.30;100694.00;;;;2079274;28;20671;-47